^^
Station Historical Data
Daily Summary for January 13, 2018 Units:  Metric    English   Both
« Previous Day
Next Day »
Daily Weekly Monthly Yearly Custom
  High: Low: Average:
Temperature: -17.8 °C -16.2 °C -11.6 °C
Dew Point: -17.8 °C -18.4 °C -12.9 °C
Humidity: Humidity % 82 % 89 %
Wind Speed: 0 km/h 0 km/h 1.3 km/h
Wind Gust: 0 km/h - -
Wind:- - SSW
Pressure: 0 hPa 1010.4 hPa -
Precipitation: 20.07 mm    
Historical Graphs
 
 
Tabular Data for January 13, 2018
Time Temperature Dew Point Pressure Wind Wind Speed Wind Gust Humidity Rainfall Rate (Hourly) solar Conditions
-17.8 °C -17.8 °C 0 hPa Calm     Humidity % 0 mm SoftwareType W/m2 Conditions
00:04 -7.6 °C -8.6 °C 1011.1 hPa Calm   3.2 km/h 93 % 0 mm WeatherDisplay:10.37 W/m2 -SN
00:09 -7.6 °C -8.6 °C 1011.4 hPa Calm   4.8 km/h 93 % 0 mm WeatherDisplay:10.37 W/m2 -SN
00:14 -7.6 °C -8.6 °C 1011.4 hPa Calm   6.4 km/h 93 % 0.25 mm WeatherDisplay:10.37 W/m2 -SN
00:19 -7.7 °C -8.6 °C 1011.4 hPa Calm   4.8 km/h 93 % 0 mm WeatherDisplay:10.37 W/m2 -SN
00:24 -7.7 °C -8.7 °C 1011.4 hPa Calm   8 km/h 93 % 0.25 mm WeatherDisplay:10.37 W/m2 -SN
00:29 -7.8 °C -8.7 °C 1011.4 hPa Calm   4.8 km/h 93 % 0 mm WeatherDisplay:10.37 W/m2 -SN
00:44 -7.9 °C -8.9 °C 1011.4 hPa Calm   9.7 km/h 93 % 0 mm WeatherDisplay:10.37 W/m2 -SN
00:54 -8.1 °C -9 °C 1011.4 hPa Calm   9.7 km/h 93 % 0 mm WeatherDisplay:10.37 W/m2 -SN
00:59 -8.1 °C -9 °C 1011.4 hPa Calm   4.8 km/h 93 % 0.25 mm WeatherDisplay:10.37 W/m2 -SN
01:04 -8.1 °C -9.1 °C 1011.1 hPa Calm   14.5 km/h 93 % 0.25 mm WeatherDisplay:10.37 W/m2 -SN
01:09 -8.2 °C -9.1 °C 1011.1 hPa NE 3.2 km/h 14.5 km/h 93 % 0 mm WeatherDisplay:10.37 W/m2 -SN
01:14 -8.3 °C -9.3 °C 1011.1 hPa NE 1.6 km/h 6.4 km/h 92 % 0.25 mm WeatherDisplay:10.37 W/m2 -SN
01:19 -8.4 °C -9.4 °C 1010.7 hPa NE 1.6 km/h 8 km/h 92 % 0.25 mm WeatherDisplay:10.37 W/m2 -SN
01:24 -8.5 °C -9.6 °C 1010.7 hPa NNE 1.6 km/h 6.4 km/h 92 % 0 mm WeatherDisplay:10.37 W/m2 -SN
01:29 -8.6 °C -9.7 °C 1010.7 hPa Calm   20.9 km/h 92 % 0.25 mm WeatherDisplay:10.37 W/m2 -SN
01:34 -8.7 °C -9.7 °C 1010.7 hPa North 1.6 km/h 20.9 km/h 92 % 0 mm WeatherDisplay:10.37 W/m2 -SN
01:39 -8.8 °C -9.8 °C 1010.7 hPa North 1.6 km/h 12.9 km/h 92 % 0.25 mm WeatherDisplay:10.37 W/m2 -SN
01:44 -8.8 °C -9.9 °C 1010.7 hPa NE 1.6 km/h 16.1 km/h 92 % 0.25 mm WeatherDisplay:10.37 W/m2 -SN
01:49 -8.9 °C -10 °C 1011.1 hPa Calm   4.8 km/h 92 % 0 mm WeatherDisplay:10.37 W/m2 -SN
01:54 -9 °C -10.1 °C 1011.1 hPa NNE 1.6 km/h 4.8 km/h 92 % 0.25 mm WeatherDisplay:10.37 W/m2 -SN
01:59 -9.1 °C -10.1 °C 1011.1 hPa Calm   6.4 km/h 92 % 0 mm WeatherDisplay:10.37 W/m2 -SN
02:04 -9.1 °C -10.2 °C 1011.1 hPa Calm   4.8 km/h 92 % 0.25 mm WeatherDisplay:10.37 W/m2 -SN
02:09 -9.2 °C -10.2 °C 1011.1 hPa North 3.2 km/h 11.3 km/h 92 % 0.25 mm WeatherDisplay:10.37 W/m2 -SN
02:14 -9.2 °C -10.3 °C 1011.1 hPa Calm   3.2 km/h 92 % 0 mm WeatherDisplay:10.37 W/m2 -SN
02:19 -9.2 °C -10.3 °C 1011.4 hPa NNW 3.2 km/h 12.9 km/h 92 % 0.25 mm WeatherDisplay:10.37 W/m2 -SN
02:24 -9.3 °C -10.3 °C 1011.4 hPa North 1.6 km/h 9.7 km/h 92 % 0.25 mm WeatherDisplay:10.37 W/m2 -SN
02:29 -9.3 °C -10.4 °C 1011.7 hPa Calm   4.8 km/h 92 % 0.25 mm WeatherDisplay:10.37 W/m2 -SN
02:39 -9.5 °C -10.6 °C 1012.1 hPa Calm   8 km/h 92 % 0.25 mm WeatherDisplay:10.37 W/m2 -SN
02:44 -9.6 °C -10.6 °C 1012.1 hPa North 3.2 km/h 8 km/h 92 % 0.25 mm WeatherDisplay:10.37 W/m2 -SN
02:49 -9.6 °C -10.7 °C 1012.1 hPa North 1.6 km/h 6.4 km/h 92 % 0.25 mm WeatherDisplay:10.37 W/m2 -SN
02:54 -9.7 °C -10.9 °C 1012.4 hPa Calm   8 km/h 91 % 0 mm WeatherDisplay:10.37 W/m2 -SN
03:04 -9.9 °C -11.1 °C 1011.7 hPa NNE 1.6 km/h 11.3 km/h 91 % 0.25 mm WeatherDisplay:10.37 W/m2 -SN
03:09 -9.9 °C -11.1 °C 1012.1 hPa Calm   8 km/h 91 % 0.25 mm WeatherDisplay:10.37 W/m2 -SN
03:14 -10 °C -11.2 °C 1012.1 hPa NNE 1.6 km/h 4.8 km/h 91 % 0 mm WeatherDisplay:10.37 W/m2 -SN
03:19 -10.1 °C -11.2 °C 1012.1 hPa North 1.6 km/h 8 km/h 91 % 0.25 mm WeatherDisplay:10.37 W/m2 -SN
03:24 -10.1 °C -11.3 °C 1011.4 hPa NNE 1.6 km/h 8 km/h 91 % 0.25 mm WeatherDisplay:10.37 W/m2 -SN
03:34 -10.1 °C -11.2 °C 1011.1 hPa Calm   8 km/h 92 % 0.25 mm WeatherDisplay:10.37 W/m2 -SN
03:39 -10.2 °C -11.3 °C 1010.7 hPa NNE 1.6 km/h 4.8 km/h 91 % 0.25 mm WeatherDisplay:10.37 W/m2 -SN
03:44 -10.2 °C -11.3 °C 1010.4 hPa NNE 1.6 km/h 6.4 km/h 91 % 0.25 mm WeatherDisplay:10.37 W/m2 -SN
03:49 -10.2 °C -11.3 °C 1010.4 hPa Calm   16.1 km/h 91 % 0.25 mm WeatherDisplay:10.37 W/m2 -SN
03:54 -10.2 °C -11.3 °C 1010.4 hPa Calm   9.7 km/h 92 % 0.25 mm WeatherDisplay:10.37 W/m2 -SN
03:59 -10.3 °C -11.4 °C 1010.7 hPa Calm   4.8 km/h 91 % 0.25 mm WeatherDisplay:10.37 W/m2 -SN
04:04 -10.3 °C -11.4 °C 1010.7 hPa North 1.6 km/h 12.9 km/h 91 % 0.25 mm WeatherDisplay:10.37 W/m2 -SN
04:09 -10.3 °C -11.5 °C 1011.1 hPa Calm   4.8 km/h 91 % 0.25 mm WeatherDisplay:10.37 W/m2 -SN
04:14 -10.3 °C -11.5 °C 1011.1 hPa Calm   4.8 km/h 91 % 0.25 mm WeatherDisplay:10.37 W/m2 -SN
04:24 -10.3 °C -11.4 °C 1011.4 hPa Calm   4.8 km/h 92 % 0 mm WeatherDisplay:10.37 W/m2 -SN
04:29 -10.4 °C -11.6 °C 1011.1 hPa Calm   8 km/h 91 % 0.25 mm WeatherDisplay:10.37 W/m2 -SN
04:34 -10.4 °C -11.6 °C 1011.1 hPa Calm   4.8 km/h 91 % 0.25 mm WeatherDisplay:10.37 W/m2 -SN
04:39 -10.4 °C -11.6 °C 1011.1 hPa Calm   3.2 km/h 91 % 0.25 mm WeatherDisplay:10.37 W/m2 -SN
04:44 -10.4 °C -11.6 °C 1011.1 hPa North 1.6 km/h 8 km/h 91 % 0 mm WeatherDisplay:10.37 W/m2 -SN
04:49 -10.5 °C -11.7 °C 1011.1 hPa North 1.6 km/h 6.4 km/h 91 % 0.25 mm WeatherDisplay:10.37 W/m2 -SN
04:54 -10.5 °C -11.7 °C 1011.1 hPa Calm   3.2 km/h 91 % 0.25 mm WeatherDisplay:10.37 W/m2 -SN
04:59 -10.6 °C -11.7 °C 1011.7 hPa NNW 3.2 km/h 11.3 km/h 91 % 0.25 mm WeatherDisplay:10.37 W/m2 -SN
05:09 -10.6 °C -11.8 °C 1011.7 hPa Calm   1.6 km/h 91 % 0.25 mm WeatherDisplay:10.37 W/m2 -SN
05:14 -10.7 °C -11.8 °C 1011.7 hPa Calm   14.5 km/h 91 % 0.25 mm WeatherDisplay:10.37 W/m2 -SN
05:19 -10.7 °C -11.9 °C 1011.7 hPa Calm   6.4 km/h 91 % 0.25 mm WeatherDisplay:10.37 W/m2 -SN
05:24 -10.7 °C -11.9 °C 1011.7 hPa Calm   9.7 km/h 91 % 0.25 mm WeatherDisplay:10.37 W/m2 -SN
05:29 -10.8 °C -11.9 °C 1011.7 hPa Calm   6.4 km/h 91 % 0.25 mm WeatherDisplay:10.37 W/m2 -SN
05:39 -10.8 °C -12.1 °C 1011.7 hPa Calm   12.9 km/h 91 % 0 mm WeatherDisplay:10.37 W/m2 -SN
05:44 -10.9 °C -12.1 °C 1011.7 hPa North 3.2 km/h 11.3 km/h 91 % 0.25 mm WeatherDisplay:10.37 W/m2 -SN
05:49 -11 °C -12.2 °C 1011.7 hPa Calm   4.8 km/h 91 % 0.25 mm WeatherDisplay:10.37 W/m2 -SN
05:59 -11.1 °C -12.3 °C 1011.7 hPa NNE 1.6 km/h 8 km/h 91 % 0.25 mm WeatherDisplay:10.37 W/m2 -SN
06:04 -11.2 °C -12.3 °C 1011.7 hPa Calm   3.2 km/h 91 % 0 mm WeatherDisplay:10.37 W/m2 -SN
06:09 -11.2 °C -12.3 °C 1011.4 hPa North 3.2 km/h 8 km/h 91 % 0.25 mm WeatherDisplay:10.37 W/m2 -SN
06:29 -11.4 °C -12.7 °C 1010.7 hPa NNE 1.6 km/h 12.9 km/h 90 % 0.25 mm WeatherDisplay:10.37 W/m2 -SN
06:34 -11.5 °C -12.8 °C 1011.1 hPa Calm   9.7 km/h 90 % 0.25 mm WeatherDisplay:10.37 W/m2 -SN
06:39 -11.6 °C -12.9 °C 1011.1 hPa Calm   11.3 km/h 90 % 0 mm WeatherDisplay:10.37 W/m2 -SN
06:44 -11.6 °C -12.9 °C 1011.1 hPa NNE 1.6 km/h 9.7 km/h 90 % 0.25 mm WeatherDisplay:10.37 W/m2 -SN
06:49 -11.7 °C -13 °C 1011.1 hPa Calm   9.7 km/h 90 % 0.25 mm WeatherDisplay:10.37 W/m2 -SN
06:59 -11.8 °C -13.1 °C 1011.1 hPa Calm   8 km/h 90 % 0.51 mm WeatherDisplay:10.37 W/m2 -SN
07:04 -11.8 °C -13.2 °C 1011.1 hPa NE 1.6 km/h 6.4 km/h 90 % 0 mm WeatherDisplay:10.37 W/m2 -SN
07:09 -11.8 °C -13.2 °C 1010.7 hPa NNE 1.6 km/h 6.4 km/h 90 % 0.51 mm WeatherDisplay:10.37 W/m2 -SN
07:14 -11.9 °C -13.2 °C 1010.4 hPa Calm   6.4 km/h 90 % 0 mm WeatherDisplay:10.37 W/m2 -SN
07:19 -11.9 °C -13.2 °C 1010.7 hPa Calm   9.7 km/h 90 % 0.25 mm WeatherDisplay:10.37 W/m2 -SN
07:24 -11.9 °C -13.3 °C 1011.1 hPa North 1.6 km/h 6.4 km/h 90 % 0.25 mm WeatherDisplay:10.37 W/m2 -SN
07:39 -12.1 °C -13.3 °C 1011.7 hPa Calm   4.8 km/h 90 % 0.25 mm WeatherDisplay:10.37 W/m2 -SN
07:44 -12.1 °C -13.4 °C 1011.4 hPa NNW 1.6 km/h 8 km/h 90 % 0 mm WeatherDisplay:10.37 W/m2 -SN
07:49 -12.1 °C -13.4 °C 1011.4 hPa NNW 1.6 km/h 11.3 km/h 90 % 0.25 mm WeatherDisplay:10.37 W/m2 RA
07:54 -12.2 °C -13.5 °C 1011.4 hPa Calm   4.8 km/h 90 % 0.25 mm WeatherDisplay:10.37 W/m2 RA
07:59 -12.2 °C -13.5 °C 1011.7 hPa NNE 1.6 km/h 4.8 km/h 90 % 0 mm WeatherDisplay:10.37 W/m2 RA
08:04 -12.3 °C -13.6 °C 1012.1 hPa North 1.6 km/h 6.4 km/h 90 % 0.25 mm WeatherDisplay:10.37 W/m2 RA
08:14 -12.4 °C -13.7 °C 1013.1 hPa NNW 3.2 km/h 8 km/h 90 % 0 mm WeatherDisplay:10.37 W/m2 RA
08:19 -12.4 °C -13.7 °C 1013.8 hPa North 3.2 km/h 9.7 km/h 90 % 0.25 mm WeatherDisplay:10.37 W/m2 RA
08:24 -12.5 °C -13.8 °C 1014.1 hPa NNW 1.6 km/h 8 km/h 90 % 0.25 mm WeatherDisplay:10.37 W/m2 RA
08:29 -12.6 °C -13.9 °C 1014.1 hPa Calm   4.8 km/h 90 % 0 mm WeatherDisplay:10.37 W/m2 RA
08:39 -12.7 °C -14 °C 1014.8 hPa NNW 1.6 km/h 9.7 km/h 90 % 0.25 mm WeatherDisplay:10.37 W/m2 RA
08:44 -12.7 °C -14 °C 1015.1 hPa NNE 1.6 km/h 11.3 km/h 90 % 0 mm WeatherDisplay:10.37 W/m2 RA
08:49 -12.7 °C -14 °C 1015.5 hPa Calm   11.3 km/h 90 % 0.25 mm WeatherDisplay:10.37 W/m2 RA
08:54 -12.7 °C -14 °C 1015.8 hPa Calm   4.8 km/h 90 % 0 mm WeatherDisplay:10.37 W/m2 RA
09:04 -12.8 °C -14.1 °C 1016.1 hPa Calm   3.2 km/h 90 % 0 mm WeatherDisplay:10.37 W/m2 RA
09:09 -12.8 °C -14.1 °C 1016.5 hPa Calm   1.6 km/h 90 % 0.25 mm WeatherDisplay:10.37 W/m2 RA
09:14 -12.8 °C -14.1 °C 1016.5 hPa Calm   1.6 km/h 90 % 0.25 mm WeatherDisplay:10.37 W/m2 RA
09:19 -12.8 °C -14.1 °C 1016.5 hPa Calm   1.6 km/h 90 % 0.25 mm WeatherDisplay:10.37 W/m2 RA
09:24 -12.7 °C -14 °C 1016.1 hPa Calm   3.2 km/h 90 % 0 mm WeatherDisplay:10.37 W/m2 RA
09:29 -12.7 °C -14 °C 1016.1 hPa NNW 3.2 km/h 11.3 km/h 90 % 0.51 mm WeatherDisplay:10.37 W/m2 RA
09:34 -12.7 °C -14 °C 1016.1 hPa NNW 3.2 km/h 11.3 km/h 90 % 0 mm WeatherDisplay:10.37 W/m2 +SN
09:39 -12.7 °C -14 °C 1016.5 hPa Calm   14.5 km/h 90 % 0.25 mm WeatherDisplay:10.37 W/m2 +SN
09:54 -12.9 °C -14.2 °C 1016.5 hPa North 3.2 km/h 6.4 km/h 90 % 0.25 mm WeatherDisplay:10.37 W/m2 +SN
09:59 -12.9 °C -14.2 °C 1016.8 hPa NNW 3.2 km/h 11.3 km/h 90 % 0.25 mm WeatherDisplay:10.37 W/m2 +SN
10:04 -13 °C -14.4 °C 1016.8 hPa North 3.2 km/h 9.7 km/h 89 % 0 mm WeatherDisplay:10.37 W/m2 +SN
10:09 -13.1 °C -14.5 °C 1016.8 hPa North 3.2 km/h 9.7 km/h 89 % 0.25 mm WeatherDisplay:10.37 W/m2 +SN
10:14 -13.1 °C -14.5 °C 1017.2 hPa North 4.8 km/h 11.3 km/h 89 % 0 mm WeatherDisplay:10.37 W/m2 +SN
10:19 -13.1 °C -14.6 °C 1017.2 hPa North 8 km/h 22.5 km/h 89 % 0.25 mm WeatherDisplay:10.37 W/m2 +SN
10:24 -13.2 °C -14.6 °C 1017.2 hPa Calm   11.3 km/h 89 % 0.25 mm WeatherDisplay:10.37 W/m2 +SN
10:29 -13.2 °C -14.6 °C 1017.2 hPa Calm   6.4 km/h 89 % 0 mm WeatherDisplay:10.37 W/m2 +SN
10:39 -13.2 °C -14.6 °C 1017.2 hPa Calm   9.7 km/h 89 % 0.25 mm WeatherDisplay:10.37 W/m2 +SN
10:44 -13.2 °C -14.6 °C 1017.2 hPa NNW 4.8 km/h 11.3 km/h 89 % 0 mm WeatherDisplay:10.37 W/m2 +SN
10:49 -13.2 °C -14.6 °C 1017.2 hPa NNW 3.2 km/h 14.5 km/h 89 % 0.25 mm WeatherDisplay:10.37 W/m2 +SN
10:54 -13.2 °C -14.7 °C 1017.2 hPa Calm   8 km/h 89 % 0 mm WeatherDisplay:10.37 W/m2 +SN
10:59 -13.2 °C -14.7 °C 1016.8 hPa Calm   6.4 km/h 89 % 0.25 mm WeatherDisplay:10.37 W/m2 +SN
11:09 -13.2 °C -14.6 °C 1016.8 hPa North 3.2 km/h 16.1 km/h 89 % 0.25 mm WeatherDisplay:10.37 W/m2 -SN
11:14 -13.2 °C -14.6 °C 1016.8 hPa Calm   8 km/h 89 % 0 mm WeatherDisplay:10.37 W/m2 -SN
11:24 -13.1 °C -14.6 °C 1017.2 hPa North 1.6 km/h 9.7 km/h 89 % 0 mm WeatherDisplay:10.37 W/m2 -SN
11:29 -13.1 °C -14.6 °C 1017.2 hPa Calm   4.8 km/h 89 % 0 mm WeatherDisplay:10.37 W/m2 -SN
11:34 -13.1 °C -14.5 °C 1017.5 hPa NNW 1.6 km/h 8 km/h 89 % 0.25 mm WeatherDisplay:10.37 W/m2 -SN
11:39 -13 °C -14.4 °C 1017.8 hPa NNW 3.2 km/h 9.7 km/h 89 % 0 mm WeatherDisplay:10.37 W/m2 -SN
11:44 -12.9 °C -14.3 °C 1017.8 hPa NNW 3.2 km/h 9.7 km/h 89 % 0.25 mm WeatherDisplay:10.37 W/m2 -SN
11:49 -12.8 °C -14.3 °C 1018.2 hPa North 8 km/h 11.3 km/h 89 % 0 mm WeatherDisplay:10.37 W/m2 -SN
11:54 -12.8 °C -14.4 °C 1018.5 hPa North 4.8 km/h 11.3 km/h 88 % 0 mm WeatherDisplay:10.37 W/m2 -SN
11:59 -12.8 °C -14.4 °C 1018.5 hPa NNW 3.2 km/h 9.7 km/h 88 % 0 mm WeatherDisplay:10.37 W/m2 -SN
12:04 -12.8 °C -14.3 °C 1018.5 hPa NNW 3.2 km/h 14.5 km/h 88 % 0 mm WeatherDisplay:10.37 W/m2 -SN
12:09 -12.7 °C -14.3 °C 1018.5 hPa Calm   9.7 km/h 88 % 0.25 mm WeatherDisplay:10.37 W/m2 -SN
12:19 -12.5 °C -14.1 °C 1018.8 hPa Calm   9.7 km/h 88 % 0 mm WeatherDisplay:10.37 W/m2 -SN
12:34 -12.3 °C -13.8 °C 1019.2 hPa Calm   11.3 km/h 88 % 0.25 mm WeatherDisplay:10.37 W/m2 -SN
12:39 -12.2 °C -13.8 °C 1019.5 hPa NNW 1.6 km/h 6.4 km/h 88 % 0 mm WeatherDisplay:10.37 W/m2 -SN
12:44 -12.1 °C -13.7 °C 1019.2 hPa NW 3.2 km/h 8 km/h 88 % 0 mm WeatherDisplay:10.37 W/m2 -SN
14:44 -11.8 °C -13.8 °C 1020.9 hPa NNW 3.2 km/h 12.9 km/h 85 % 0 mm WeatherDisplay:10.37 W/m2 -SN
14:49 -11.9 °C -13.9 °C 1020.9 hPa NNW 3.2 km/h 16.1 km/h 85 % 0 mm WeatherDisplay:10.37 W/m2 -SN
14:59 -12 °C -14.2 °C 1020.9 hPa North 3.2 km/h 11.3 km/h 84 % 0 mm WeatherDisplay:10.37 W/m2 -SN
15:04 -12.1 °C -14.2 °C 1021.2 hPa NNW 3.2 km/h 8 km/h 84 % 0 mm WeatherDisplay:10.37 W/m2 -SN
15:09 -12.1 °C -14.2 °C 1021.2 hPa North 1.6 km/h 8 km/h 84 % 0 mm WeatherDisplay:10.37 W/m2 -SN
15:14 -12.1 °C -14.3 °C 1021.6 hPa NNW 1.6 km/h 8 km/h 84 % 0 mm WeatherDisplay:10.37 W/m2 -SN
15:19 -12.2 °C -14.3 °C 1021.6 hPa NW 4.8 km/h 11.3 km/h 84 % 0 mm WeatherDisplay:10.37 W/m2 OVC
15:39 -12.4 °C -14.7 °C 1021.9 hPa NNW 1.6 km/h 11.3 km/h 83 % 0 mm WeatherDisplay:10.37 W/m2 OVC
15:44 -12.5 °C -14.8 °C 1021.9 hPa NNW 1.6 km/h 8 km/h 83 % 0 mm WeatherDisplay:10.37 W/m2 OVC
15:54 -12.6 °C -14.9 °C 1022.6 hPa NNW 4.8 km/h 14.5 km/h 83 % 0 mm WeatherDisplay:10.37 W/m2 OVC
16:24 -13.5 °C -15.8 °C 1023.2 hPa NNW 4.8 km/h 9.7 km/h 83 % 0 mm WeatherDisplay:10.37 W/m2 SCT
16:29 -13.7 °C -15.9 °C 1023.2 hPa NNW 1.6 km/h 6.4 km/h 83 % 0 mm WeatherDisplay:10.37 W/m2 SCT
16:39 -13.9 °C -16.3 °C 1023.6 hPa Calm   4.8 km/h 82 % 0 mm WeatherDisplay:10.37 W/m2 SCT
16:44 -14.1 °C -16.5 °C 1023.6 hPa Calm   3.2 km/h 82 % 0 mm WeatherDisplay:10.37 W/m2 SCT
16:49 -14.2 °C -16.6 °C 1023.9 hPa NNW 1.6 km/h 6.4 km/h 82 % 0 mm WeatherDisplay:10.37 W/m2 SCT
16:59 -14.6 °C -16.9 °C 1024.3 hPa Calm   4.8 km/h 82 % 0 mm WeatherDisplay:10.37 W/m2 SCT
17:04 -14.7 °C -17.1 °C 1024.3 hPa NNW 1.6 km/h 4.8 km/h 82 % 0 mm WeatherDisplay:10.37 W/m2 SCT
17:09 -14.8 °C -17.2 °C 1024.6 hPa NNW 1.6 km/h 6.4 km/h 82 % 0 mm WeatherDisplay:10.37 W/m2 SCT
17:14 -15 °C -17.4 °C 1024.9 hPa Calm   4.8 km/h 82 % 0 mm WeatherDisplay:10.37 W/m2 BKN
17:19 -15.2 °C -17.6 °C 1025.3 hPa Calm   1.6 km/h 82 % 0 mm WeatherDisplay:10.37 W/m2 BKN
17:24 -15.3 °C -17.6 °C 1025.3 hPa Calm   4.8 km/h 82 % 0 mm WeatherDisplay:10.37 W/m2 BKN
17:29 -15.4 °C -17.8 °C 1025.6 hPa Calm   4.8 km/h 82 % 0 mm WeatherDisplay:10.37 W/m2 BKN
17:34 -15.6 °C -17.8 °C 1025.6 hPa NW 1.6 km/h 6.4 km/h 83 % 0 mm WeatherDisplay:10.37 W/m2 BKN
17:44 -15.9 °C -18.1 °C 1026 hPa NNW 1.6 km/h 6.4 km/h 83 % 0 mm WeatherDisplay:10.37 W/m2 BKN
17:49 -16 °C -18.2 °C 1026.3 hPa Calm   4.8 km/h 83 % 0 mm WeatherDisplay:10.37 W/m2 BKN
17:59 -16.2 °C -18.4 °C 1026.3 hPa Calm   6.4 km/h 83 % 0 mm WeatherDisplay:10.37 W/m2 BKN
Juneau County Weather
Compliments of Weather Underground - 2.25 mb